createdAt,value
2022-11-01T00:05:05.974Z,23.00
2022-11-01T00:15:09.619Z,22.60
2022-11-01T00:25:13.278Z,25.20
2022-11-01T00:35:17.153Z,24.80
2022-11-01T00:45:21.024Z,31.20
2022-11-01T00:55:24.988Z,37.60
2022-11-01T01:05:28.860Z,44.80
2022-11-01T01:15:32.524Z,32.00
2022-11-01T01:25:40.716Z,34.90
2022-11-01T01:35:44.970Z,31.60
2022-11-01T01:45:48.639Z,34.40
2022-11-01T01:56:15.849Z,31.10
2022-11-01T02:06:22.252Z,25.80
2022-11-01T02:17:00.014Z,25.30
2022-11-01T02:27:08.909Z,31.10
2022-11-01T02:37:18.927Z,29.70
2022-11-01T02:47:25.746Z,27.40
2022-11-01T02:57:38.715Z,24.00
2022-11-01T03:07:46.589Z,32.70
2022-11-01T03:18:01.415Z,27.40
2022-11-01T03:28:07.272Z,21.80
2022-11-01T03:38:16.314Z,25.00
2022-11-01T03:48:19.884Z,31.20
2022-11-01T03:58:23.638Z,26.60
2022-11-01T04:08:27.215Z,19.60
2022-11-01T04:18:49.518Z,22.20
2022-11-01T04:28:59.203Z,17.00
2022-11-01T04:39:02.771Z,18.80
2022-11-01T04:49:06.233Z,18.20
2022-11-01T04:59:09.907Z,13.90
2022-11-01T05:09:13.778Z,18.30
2022-11-01T05:19:17.740Z,16.00
2022-11-01T05:29:32.610Z,19.20
2022-11-01T05:39:37.245Z,13.60
2022-11-01T05:49:41.111Z,16.60
2022-11-01T05:59:44.982Z,13.20
2022-11-01T06:09:48.658Z,32.00
2022-11-01T06:19:52.920Z,17.90
2022-11-01T06:29:56.896Z,14.50
2022-11-01T06:40:00.534Z,15.60
2022-11-01T06:50:05.385Z,18.90
2022-11-01T07:00:09.994Z,33.90
2022-11-01T07:10:14.030Z,21.60
2022-11-01T07:20:17.890Z,30.80
2022-11-01T07:30:22.495Z,17.50
2022-11-01T07:40:29.720Z,21.00
2022-11-01T07:50:34.927Z,17.70
2022-11-01T08:00:40.536Z,15.20
2022-11-01T08:10:44.832Z,12.20
2022-11-01T08:20:49.699Z,13.90
2022-11-01T08:30:53.570Z,12.90
2022-11-01T08:40:57.681Z,17.70
2022-11-01T08:51:03.322Z,14.60
2022-11-01T09:01:07.920Z,18.80
2022-11-01T09:11:12.222Z,11.20
2022-11-01T09:21:17.529Z,14.70
2022-11-01T09:31:21.698Z,9.70
2022-11-01T09:41:39.201Z,11.30
2022-11-01T09:51:43.180Z,8.20
2022-11-01T10:02:26.776Z,9.30
2022-11-01T10:12:52.191Z,13.80
2022-11-01T10:22:57.759Z,16.70
2022-11-01T10:33:40.890Z,19.70
2022-11-01T10:43:50.512Z,20.60
2022-11-01T10:53:58.023Z,22.50
2022-11-01T11:04:06.550Z,29.20
2022-11-01T11:14:13.242Z,25.40
2022-11-01T11:24:20.196Z,23.20
2022-11-01T11:34:36.030Z,22.80
2022-11-01T11:44:43.283Z,21.30
2022-11-01T11:54:47.644Z,22.70
2022-11-01T12:05:08.942Z,22.90
2022-11-01T12:15:30.706Z,24.00
2022-11-01T12:25:37.001Z,27.50
2022-11-01T12:35:46.173Z,30.80
2022-11-01T12:45:56.023Z,24.20
2022-11-01T12:56:01.202Z,23.00
2022-11-01T13:06:14.709Z,21.60
2022-11-01T13:16:21.460Z,22.30
2022-11-01T13:26:28.483Z,21.00
2022-11-01T13:36:45.051Z,16.90
2022-11-01T13:57:15.726Z,19.80
2022-11-01T14:07:19.387Z,18.10
2022-11-01T14:17:23.980Z,19.90
2022-11-01T14:27:36.731Z,22.00
2022-11-01T14:37:50.486Z,19.70
2022-11-01T14:47:58.962Z,22.20
2022-11-01T14:58:09.598Z,25.00
2022-11-01T15:08:25.380Z,19.70
2022-11-01T15:18:31.400Z,27.70
2022-11-01T15:28:43.569Z,35.20
2022-11-01T15:38:56.406Z,32.10
2022-11-01T15:49:38.102Z,22.10
2022-11-01T16:00:32.195Z,29.10
2022-11-01T16:10:36.546Z,35.50
2022-11-01T16:20:42.125Z,30.80
2022-11-01T16:30:57.700Z,27.00
2022-11-01T16:41:25.116Z,24.90
2022-11-01T16:51:31.593Z,28.00
2022-11-01T17:01:36.691Z,30.20
2022-11-01T17:11:45.021Z,24.70
2022-11-01T17:21:52.909Z,27.90
2022-11-01T17:31:57.581Z,31.30
2022-11-01T17:42:03.082Z,22.90
2022-11-01T17:52:07.849Z,37.70
2022-11-01T18:02:13.632Z,29.10
2022-11-01T18:12:35.141Z,27.90
2022-11-01T18:22:56.523Z,27.20
2022-11-01T18:33:14.745Z,25.40
2022-11-01T18:43:22.170Z,24.90
2022-11-01T18:53:28.498Z,26.70
2022-11-01T19:03:33.278Z,25.20
2022-11-01T19:13:39.559Z,31.20
2022-11-01T19:23:49.428Z,35.00
2022-11-01T19:33:56.574Z,38.30
2022-11-01T19:44:19.141Z,33.90
2022-11-01T19:54:26.381Z,33.70
2022-11-01T20:04:33.449Z,37.10
2022-11-01T20:14:40.688Z,40.10
2022-11-01T20:24:46.730Z,40.00
2022-11-01T20:34:51.599Z,57.50
2022-11-01T20:44:56.700Z,76.90
2022-11-01T20:55:01.600Z,63.30
2022-11-01T21:05:18.713Z,59.70
2022-11-01T21:15:26.012Z,57.10
2022-11-01T21:25:29.637Z,47.90
2022-11-01T21:35:39.200Z,46.50
2022-11-01T21:45:46.862Z,60.20
2022-11-01T21:55:50.871Z,47.40
2022-11-01T22:05:54.828Z,51.20
2022-11-01T22:15:58.851Z,43.50
2022-11-01T22:26:02.515Z,48.90
2022-11-01T22:36:08.564Z,41.00
2022-11-01T22:46:24.175Z,47.60
2022-11-01T22:56:29.996Z,64.00
2022-11-01T23:06:35.498Z,37.70
2022-11-01T23:16:44.432Z,47.10
2022-11-01T23:26:47.946Z,34.00
2022-11-01T23:36:51.852Z,31.20
2022-11-01T23:47:11.039Z,33.60
2022-11-01T23:57:20.674Z,31.90
